createdAt,value
2022-10-25T00:01:27.714Z,2.33
2022-10-25T00:03:59.380Z,1.75
2022-10-25T00:06:30.277Z,2.20
2022-10-25T00:09:03.941Z,1.75
2022-10-25T00:11:35.889Z,1.67
2022-10-25T00:14:09.478Z,2.20
2022-10-25T00:16:42.013Z,1.92
2022-10-25T00:19:14.606Z,1.88
2022-10-25T00:21:45.454Z,2.13
2022-10-25T00:24:19.382Z,1.45
2022-10-25T00:26:50.018Z,2.00
2022-10-25T00:44:38.901Z,1.92
2022-10-25T00:47:20.899Z,1.75
2022-10-25T00:49:56.732Z,2.20
2022-10-25T00:52:28.171Z,2.08
2022-10-25T00:54:58.882Z,2.55
2022-10-25T00:57:34.831Z,2.10
2022-10-25T01:00:06.837Z,2.80
2022-10-25T01:02:40.405Z,2.22
2022-10-25T01:05:13.150Z,1.92
2022-10-25T01:07:43.930Z,1.85
2022-10-25T01:10:15.347Z,1.70
2022-10-25T01:12:47.564Z,2.15
2022-10-25T01:15:22.621Z,2.30
2022-10-25T01:18:03.659Z,2.95
2022-10-25T01:21:01.298Z,2.00
2022-10-25T01:23:55.516Z,2.13
2022-10-25T01:26:58.791Z,3.13
2022-10-25T01:30:11.745Z,2.40
2022-10-25T01:32:52.235Z,2.50
2022-10-25T01:35:29.573Z,2.67
2022-10-25T01:38:11.748Z,4.00
2022-10-25T01:40:51.232Z,3.45
2022-10-25T01:43:32.475Z,3.83
2022-10-25T01:46:15.420Z,3.50
2022-10-25T01:48:51.176Z,3.25
2022-10-25T01:51:22.422Z,3.15
2022-10-25T01:53:54.899Z,3.03
2022-10-25T01:56:30.466Z,3.30
2022-10-25T01:59:29.168Z,3.33
2022-10-25T02:02:09.841Z,3.00
2022-10-25T02:04:54.914Z,2.92
2022-10-25T02:07:31.108Z,3.10
2022-10-25T02:10:08.955Z,3.00
2022-10-25T02:12:50.103Z,2.63
2022-10-25T02:15:26.056Z,3.08
2022-10-25T02:18:02.201Z,3.08
2022-10-25T02:20:41.829Z,3.53
2022-10-25T02:23:16.666Z,3.50
2022-10-25T02:25:48.510Z,3.17
2022-10-25T02:28:22.373Z,3.10
2022-10-25T02:30:54.592Z,3.50
2022-10-25T02:33:25.641Z,3.20
2022-10-25T02:36:15.674Z,3.15
2022-10-25T02:38:48.382Z,3.55
2022-10-25T02:41:20.084Z,3.05
2022-10-25T02:43:51.041Z,4.05
2022-10-25T02:46:23.920Z,4.38
2022-10-25T02:48:55.032Z,3.47
2022-10-25T02:51:28.324Z,3.80
2022-10-25T02:53:59.270Z,3.88
2022-10-25T02:56:30.146Z,3.60
2022-10-25T02:59:01.798Z,3.58
2022-10-25T03:01:32.911Z,4.13
2022-10-25T03:04:03.695Z,3.50
2022-10-25T03:06:37.051Z,3.58
2022-10-25T03:09:08.340Z,3.53
2022-10-25T03:11:39.016Z,4.32
2022-10-25T03:14:10.177Z,3.92
2022-10-25T03:16:40.971Z,3.75
2022-10-25T03:19:11.888Z,4.00
2022-10-25T03:21:45.161Z,3.17
2022-10-25T03:24:16.061Z,4.03
2022-10-25T03:26:46.751Z,3.10
2022-10-25T03:29:17.388Z,3.17
2022-10-25T03:31:48.038Z,3.03
2022-10-25T03:34:18.942Z,3.00
2022-10-25T03:36:52.792Z,3.38
2022-10-25T03:39:23.764Z,3.10
2022-10-25T03:41:54.905Z,3.53
2022-10-25T03:44:25.726Z,3.13
2022-10-25T03:46:56.402Z,3.33
2022-10-25T03:49:27.316Z,3.20
2022-10-25T03:52:02.775Z,3.08
2022-10-25T03:54:35.873Z,3.90
2022-10-25T03:57:07.216Z,3.17
2022-10-25T03:59:37.880Z,3.70
2022-10-25T04:02:08.659Z,4.03
2022-10-25T04:04:39.457Z,3.50
2022-10-25T04:07:12.818Z,4.00
2022-10-25T04:09:43.745Z,3.65
2022-10-25T04:12:14.729Z,4.47
2022-10-25T04:14:46.635Z,3.97
2022-10-25T04:17:17.462Z,4.05
2022-10-25T04:19:48.110Z,3.70
2022-10-25T04:22:21.350Z,4.13
2022-10-25T04:24:52.072Z,4.15
2022-10-25T04:27:23.012Z,3.28
2022-10-25T04:29:53.772Z,3.58
2022-10-25T04:32:24.575Z,3.30
2022-10-25T04:34:55.239Z,3.80
2022-10-25T04:37:28.799Z,4.47
2022-10-25T04:39:59.640Z,3.75
2022-10-25T04:42:30.851Z,4.07
2022-10-25T04:45:01.562Z,4.10
2022-10-25T04:47:35.064Z,4.18
2022-10-25T04:50:05.829Z,3.88
2022-10-25T04:52:39.556Z,4.78
2022-10-25T04:55:11.063Z,3.15
2022-10-25T04:57:41.718Z,3.90
2022-10-25T05:00:14.170Z,3.72
2022-10-25T05:02:45.013Z,3.88
2022-10-25T05:05:16.011Z,5.03
2022-10-25T05:07:49.482Z,4.72
2022-10-25T05:10:21.403Z,4.47
2022-10-25T05:12:52.333Z,4.57
2022-10-25T05:15:23.079Z,4.38
2022-10-25T05:17:53.869Z,4.75
2022-10-25T05:20:24.616Z,4.28
2022-10-25T05:22:58.496Z,3.97
2022-10-25T05:25:29.178Z,3.90
2022-10-25T05:28:00.226Z,3.40
2022-10-25T05:30:31.422Z,4.47
2022-10-25T05:33:04.184Z,3.03
2022-10-25T05:35:36.616Z,3.85
2022-10-25T05:38:10.247Z,3.85
2022-10-25T05:40:42.602Z,4.20
2022-10-25T05:43:14.218Z,3.85
2022-10-25T05:45:45.152Z,4.68
2022-10-25T05:48:16.570Z,4.43
2022-10-25T05:50:47.858Z,3.92
2022-10-25T05:53:21.744Z,3.90
2022-10-25T05:55:52.492Z,3.35
2022-10-25T05:58:23.835Z,3.60
2022-10-25T06:00:55.422Z,3.75
2022-10-25T06:03:26.459Z,3.42
2022-10-25T06:05:57.422Z,2.90
2022-10-25T06:08:31.985Z,2.95
2022-10-25T06:11:05.370Z,3.22
2022-10-25T06:13:36.439Z,3.50
2022-10-25T06:16:08.694Z,2.58
2022-10-25T06:18:40.045Z,2.60
2022-10-25T06:21:13.056Z,3.20
2022-10-25T06:23:48.513Z,3.25
2022-10-25T06:26:21.691Z,3.22
2022-10-25T06:28:56.067Z,3.58
2022-10-25T06:31:27.575Z,4.68
2022-10-25T06:33:58.325Z,3.67
2022-10-25T06:36:31.237Z,3.72
2022-10-25T06:39:07.091Z,3.67
2022-10-25T06:41:41.167Z,3.80
2022-10-25T06:44:13.324Z,4.07
2022-10-25T06:47:15.379Z,4.45
2022-10-25T06:49:36.805Z,4.80
2022-10-25T06:52:08.287Z,5.40
2022-10-25T06:54:42.987Z,5.18
2022-10-25T06:57:14.306Z,5.65
2022-10-25T06:59:46.403Z,6.28
2022-10-25T07:02:17.547Z,5.95
2022-10-25T07:04:48.639Z,6.03
2022-10-25T07:07:20.073Z,6.07
2022-10-25T07:09:53.663Z,6.53
2022-10-25T07:12:24.681Z,6.75
2022-10-25T07:14:55.878Z,5.43
2022-10-25T07:17:26.975Z,5.32
2022-10-25T07:19:58.418Z,3.95
2022-10-25T07:22:29.249Z,20.38
2022-10-25T07:25:03.656Z,15.85
2022-10-25T07:27:36.258Z,6.18
2022-10-25T07:30:07.811Z,7.00
2022-10-25T07:32:41.616Z,5.88
2022-10-25T07:35:13.552Z,4.93
2022-10-25T07:37:44.447Z,5.38
2022-10-25T07:40:18.925Z,4.35
2022-10-25T07:42:52.304Z,4.38
2022-10-25T07:45:24.500Z,4.10
2022-10-25T07:47:57.534Z,4.32
2022-10-25T07:50:28.328Z,4.18
2022-10-25T07:52:59.473Z,3.97
2022-10-25T07:55:32.951Z,4.55
2022-10-25T07:58:04.816Z,4.38
2022-10-25T08:00:36.216Z,4.40
2022-10-25T08:03:07.746Z,4.43
2022-10-25T08:05:39.038Z,4.63
2022-10-25T08:08:10.298Z,3.67
2022-10-25T08:10:45.935Z,3.58
2022-10-25T08:13:16.619Z,4.25
2022-10-25T08:15:54.017Z,3.92
2022-10-25T08:18:25.552Z,4.25
2022-10-25T08:21:02.272Z,4.93
2022-10-25T08:23:34.432Z,4.32
2022-10-25T08:26:08.182Z,5.20
2022-10-25T08:28:39.106Z,4.97
2022-10-25T08:31:10.734Z,5.75
2022-10-25T08:33:41.643Z,6.28
2022-10-25T08:36:13.732Z,6.20
2022-10-25T08:38:44.706Z,6.45
2022-10-25T08:41:23.276Z,9.57
2022-10-25T08:44:18.541Z,10.63
2022-10-25T08:46:58.681Z,12.43
2022-10-25T08:49:37.149Z,9.45
2022-10-25T08:52:12.927Z,8.07
2022-10-25T08:54:48.901Z,6.80
2022-10-25T08:57:26.790Z,6.05
2022-10-25T08:59:59.973Z,5.68
2022-10-25T09:02:42.675Z,4.78
2022-10-25T09:05:20.581Z,7.47
2022-10-25T09:08:00.245Z,6.70
2022-10-25T09:10:43.617Z,5.50
2022-10-25T09:13:28.681Z,5.25
2022-10-25T09:16:11.211Z,3.20
2022-10-25T09:18:47.905Z,3.60
2022-10-25T09:21:23.074Z,3.15
2022-10-25T09:24:02.181Z,4.13
2022-10-25T09:26:59.244Z,3.75
2022-10-25T09:29:38.918Z,3.97
2022-10-25T09:32:17.898Z,3.58
2022-10-25T09:34:49.958Z,3.67
2022-10-25T09:37:26.793Z,3.28
2022-10-25T09:40:00.862Z,2.78
2022-10-25T09:42:38.096Z,3.00
2022-10-25T09:45:24.813Z,3.22
2022-10-25T09:48:03.624Z,4.33
2022-10-25T09:50:39.131Z,4.18
2022-10-25T09:53:17.635Z,2.90
2022-10-25T09:55:56.367Z,3.33
2022-10-25T09:58:30.690Z,3.37
2022-10-25T10:01:08.008Z,3.90
2022-10-25T10:03:41.561Z,3.80
2022-10-25T10:06:22.029Z,3.35
2022-10-25T10:08:56.423Z,3.10
2022-10-25T10:11:28.159Z,3.25
2022-10-25T10:14:07.508Z,3.00
2022-10-25T10:16:49.199Z,3.05
2022-10-25T10:19:22.117Z,3.03
2022-10-25T10:21:57.101Z,3.03
2022-10-25T10:24:31.588Z,3.47
2022-10-25T10:27:05.106Z,3.30
2022-10-25T10:29:38.724Z,3.17
2022-10-25T10:32:30.082Z,3.58
2022-10-25T10:35:02.027Z,2.80
2022-10-25T10:37:34.529Z,3.53
2022-10-25T10:40:25.544Z,2.85
2022-10-25T10:42:59.017Z,2.78
2022-10-25T10:45:31.857Z,2.50
2022-10-25T10:48:05.756Z,2.10
2022-10-25T10:50:37.029Z,1.90
2022-10-25T10:53:10.100Z,2.00
2022-10-25T10:55:51.195Z,2.60
2022-10-25T10:58:26.397Z,2.53
2022-10-25T11:01:01.128Z,3.00
2022-10-25T11:03:59.514Z,2.17
2022-10-25T11:06:35.823Z,2.47
2022-10-25T11:09:21.341Z,2.58
2022-10-25T11:12:10.694Z,2.80
2022-10-25T11:14:42.731Z,2.40
2022-10-25T11:17:18.402Z,2.22
2022-10-25T11:20:11.063Z,2.28
2022-10-25T11:22:58.891Z,2.55
2022-10-25T11:25:40.438Z,2.40
2022-10-25T11:28:26.449Z,2.08
2022-10-25T11:31:05.945Z,2.42
2022-10-25T11:33:48.669Z,2.53
2022-10-25T11:36:35.584Z,2.65
2022-10-25T11:39:19.187Z,3.22
2022-10-25T11:41:53.285Z,2.53
2022-10-25T11:44:46.470Z,2.30
2022-10-25T11:47:34.861Z,2.20
2022-10-25T11:50:20.634Z,2.00
2022-10-25T11:53:09.782Z,2.53
2022-10-25T11:55:46.279Z,2.38
2022-10-25T11:58:29.896Z,1.85
2022-10-25T12:01:13.198Z,1.70
2022-10-25T12:04:00.092Z,1.60
2022-10-25T12:06:39.413Z,2.13
2022-10-25T12:09:26.415Z,1.90
2022-10-25T12:12:01.478Z,2.03
2022-10-25T12:14:36.263Z,2.30
2022-10-25T12:17:10.470Z,2.40
2022-10-25T12:19:48.107Z,2.22
2022-10-25T12:22:23.846Z,2.97
2022-10-25T12:25:02.777Z,2.33
2022-10-25T12:27:34.840Z,2.25
2022-10-25T12:30:08.703Z,1.75
2022-10-25T12:32:45.771Z,1.98
2022-10-25T12:35:25.203Z,2.53
2022-10-25T12:37:59.124Z,2.03
2022-10-25T12:40:41.547Z,1.88
2022-10-25T12:43:20.302Z,2.03
2022-10-25T12:46:19.798Z,1.80
2022-10-25T12:49:28.781Z,1.88
2022-10-25T12:52:14.671Z,2.00
2022-10-25T12:55:06.346Z,1.80
2022-10-25T12:57:48.610Z,2.00
2022-10-25T13:00:22.204Z,1.98
2022-10-25T13:03:19.367Z,1.90
2022-10-25T13:06:27.491Z,1.70
2022-10-25T13:09:05.839Z,2.00
2022-10-25T13:11:40.987Z,1.80
2022-10-25T13:14:30.919Z,1.73
2022-10-25T13:17:37.519Z,1.80
2022-10-25T13:20:39.232Z,1.83
2022-10-25T13:23:50.399Z,2.22
2022-10-25T13:26:26.024Z,2.30
2022-10-25T13:28:58.943Z,2.22
2022-10-25T13:32:00.908Z,2.15
2022-10-25T13:34:39.324Z,1.85
2022-10-25T13:37:47.615Z,1.90
2022-10-25T13:45:44.288Z,2.70
2022-10-25T13:48:34.814Z,2.42
2022-10-25T13:51:13.832Z,2.40
2022-10-25T13:53:48.761Z,2.60
2022-10-25T13:56:21.587Z,3.00
2022-10-25T13:58:53.598Z,2.60
2022-10-25T14:02:06.458Z,2.97
2022-10-25T14:04:42.290Z,3.08
2022-10-25T14:07:43.480Z,2.42
2022-10-25T14:10:38.257Z,3.10
2022-10-25T14:13:23.096Z,2.92
2022-10-25T14:16:01.693Z,3.58
2022-10-25T14:18:33.570Z,3.35
2022-10-25T14:21:12.835Z,3.38
2022-10-25T14:23:44.930Z,3.70
2022-10-25T14:26:18.585Z,3.72
2022-10-25T14:28:49.779Z,5.03
2022-10-25T14:31:22.896Z,3.80
2022-10-25T14:33:55.704Z,3.38
2022-10-25T14:36:32.870Z,3.40
2022-10-25T14:39:07.176Z,4.40
2022-10-25T14:41:38.996Z,3.40
2022-10-25T14:44:25.463Z,3.55
2022-10-25T14:46:57.325Z,4.47
2022-10-25T14:49:29.477Z,4.28
2022-10-25T14:52:09.781Z,4.60
2022-10-25T14:54:41.477Z,4.10
2022-10-25T14:57:14.010Z,3.55
2022-10-25T14:59:49.566Z,3.13
2022-10-25T15:02:24.865Z,2.75
2022-10-25T15:04:59.483Z,2.92
2022-10-25T15:07:36.238Z,2.72
2022-10-25T15:10:08.956Z,3.53
2022-10-25T15:12:40.054Z,2.78
2022-10-25T15:15:35.207Z,1.92
2022-10-25T15:18:05.980Z,2.35
2022-10-25T15:20:38.291Z,2.20
2022-10-25T15:23:20.051Z,1.75
2022-10-25T15:25:51.405Z,1.52
2022-10-25T15:28:23.450Z,2.47
2022-10-25T15:31:07.499Z,1.35
2022-10-25T15:33:38.989Z,1.60
2022-10-25T15:36:10.533Z,1.90
2022-10-25T15:39:06.285Z,1.77
2022-10-25T15:41:35.309Z,1.77
2022-10-25T15:44:06.067Z,1.70
2022-10-25T15:46:38.538Z,2.75
2022-10-25T15:49:10.315Z,1.77
2022-10-25T15:51:44.404Z,1.77
2022-10-25T15:54:21.519Z,1.65
2022-10-25T15:56:54.441Z,1.70
2022-10-25T15:59:25.389Z,1.60
2022-10-25T16:01:57.042Z,1.98
2022-10-25T16:04:27.763Z,2.20
2022-10-25T16:06:58.867Z,1.80
2022-10-25T16:09:32.596Z,2.13
2022-10-25T16:12:03.737Z,1.77
2022-10-25T16:14:34.795Z,3.42
2022-10-25T16:17:05.878Z,1.90
2022-10-25T16:19:36.606Z,1.48
2022-10-25T16:22:07.322Z,2.47
2022-10-25T16:24:41.009Z,1.95
2022-10-25T16:27:15.348Z,2.03
2022-10-25T16:29:47.402Z,2.60
2022-10-25T16:32:19.260Z,4.20
2022-10-25T16:34:50.637Z,1.80
2022-10-25T16:37:22.286Z,1.77
2022-10-25T16:39:56.556Z,1.65
2022-10-25T16:42:35.040Z,1.70
2022-10-25T16:45:14.411Z,1.48
2022-10-25T16:47:45.564Z,1.55
2022-10-25T16:50:23.280Z,1.50
2022-10-25T16:52:54.428Z,2.17
2022-10-25T16:55:30.795Z,2.20
2022-10-25T16:58:03.315Z,2.13
2022-10-25T17:00:36.376Z,2.50
2022-10-25T17:03:07.862Z,2.42
2022-10-25T17:05:40.170Z,1.80
2022-10-25T17:08:11.435Z,1.85
2022-10-25T17:10:46.197Z,1.98
2022-10-25T17:13:19.725Z,1.75
2022-10-25T17:15:53.126Z,1.75
2022-10-25T17:18:27.171Z,1.65
2022-10-25T17:20:58.502Z,1.30
2022-10-25T17:23:29.585Z,1.63
2022-10-25T17:26:04.285Z,2.00
2022-10-25T17:28:37.787Z,2.33
2022-10-25T17:31:12.456Z,2.75
2022-10-25T17:33:43.440Z,2.25
2022-10-25T17:36:16.061Z,3.10
2022-10-25T17:38:48.006Z,2.75
2022-10-25T17:41:22.157Z,1.70
2022-10-25T17:43:55.998Z,2.15
2022-10-25T17:46:30.356Z,2.67
2022-10-25T17:49:06.132Z,2.83
2022-10-25T17:51:38.253Z,1.90
2022-10-25T17:54:10.735Z,2.33
2022-10-25T17:56:44.347Z,2.17
2022-10-25T17:59:15.639Z,1.80
2022-10-25T18:01:46.733Z,2.50
2022-10-25T18:04:17.956Z,1.85
2022-10-25T18:06:48.896Z,1.83
2022-10-25T18:09:20.599Z,1.90
2022-10-25T18:11:55.421Z,1.88
2022-10-25T18:14:26.827Z,1.63
2022-10-25T18:16:58.685Z,1.80
2022-10-25T18:19:30.690Z,2.15
2022-10-25T18:22:04.506Z,1.40
2022-10-25T18:24:37.464Z,2.05
2022-10-25T18:27:13.810Z,1.70
2022-10-25T18:29:47.397Z,2.05
2022-10-25T18:32:30.939Z,1.65
2022-10-25T18:35:05.426Z,1.92
2022-10-25T18:37:36.623Z,1.60
2022-10-25T18:40:11.308Z,1.38
2022-10-25T18:42:46.170Z,1.83
2022-10-25T18:45:18.337Z,1.65
2022-10-25T18:47:54.387Z,1.80
2022-10-25T18:50:26.916Z,1.73
2022-10-25T18:53:00.018Z,1.70
2022-10-25T18:55:31.994Z,1.88
2022-10-25T18:58:06.616Z,1.33
2022-10-25T19:00:38.761Z,1.15
2022-10-25T19:03:11.004Z,2.17
2022-10-25T19:05:43.196Z,1.48
2022-10-25T19:08:16.071Z,2.10
2022-10-25T19:10:50.549Z,1.75
2022-10-25T19:13:25.057Z,2.72
2022-10-25T19:15:59.991Z,1.75
2022-10-25T19:18:34.260Z,1.60
2022-10-25T19:21:07.015Z,1.55
2022-10-25T19:23:39.822Z,2.00
2022-10-25T19:26:12.706Z,1.75
2022-10-25T19:28:47.139Z,1.60
2022-10-25T19:31:21.578Z,1.65
2022-10-25T19:33:56.781Z,1.80
2022-10-25T19:36:27.879Z,2.10
2022-10-25T19:38:59.478Z,1.75
2022-10-25T19:41:32.639Z,2.40
2022-10-25T19:44:06.307Z,1.70
2022-10-25T19:46:37.616Z,1.65
2022-10-25T19:49:09.249Z,1.77
2022-10-25T19:51:40.518Z,1.83
2022-10-25T19:54:11.611Z,1.85
2022-10-25T19:56:42.621Z,1.95
2022-10-25T19:59:16.590Z,1.83
2022-10-25T20:01:49.071Z,1.73
2022-10-25T20:04:21.487Z,1.98
2022-10-25T20:06:52.921Z,2.40
2022-10-25T20:09:24.153Z,1.98
2022-10-25T20:11:58.057Z,1.85
2022-10-25T20:14:33.722Z,2.28
2022-10-25T20:17:04.699Z,2.10
2022-10-25T20:19:36.102Z,1.88
2022-10-25T20:22:08.845Z,2.65
2022-10-25T20:24:39.925Z,2.40
2022-10-25T20:27:10.959Z,2.45
2022-10-25T20:29:45.042Z,2.10
2022-10-25T20:32:16.096Z,2.60
2022-10-25T20:34:47.704Z,3.78
2022-10-25T20:37:19.130Z,3.42
2022-10-25T20:39:50.637Z,3.63
2022-10-25T20:42:21.733Z,2.15
2022-10-25T20:44:55.507Z,2.33
2022-10-25T20:47:26.840Z,2.00
2022-10-25T20:49:57.633Z,1.70
2022-10-25T20:52:28.416Z,1.88
2022-10-25T20:54:59.101Z,2.70
2022-10-25T20:57:29.960Z,1.90
2022-10-25T21:00:03.368Z,1.90
2022-10-25T21:02:34.443Z,2.15
2022-10-25T21:05:05.228Z,2.40
2022-10-25T21:07:36.420Z,2.05
2022-10-25T21:10:08.046Z,2.00
2022-10-25T21:12:39.102Z,2.05
2022-10-25T21:15:15.570Z,2.10
2022-10-25T21:17:51.433Z,1.60
2022-10-25T21:20:22.240Z,2.67
2022-10-25T21:22:53.053Z,2.45
2022-10-25T21:25:23.689Z,2.05
2022-10-25T21:27:58.812Z,1.77
2022-10-25T21:30:32.274Z,1.95
2022-10-25T21:33:03.215Z,2.55
2022-10-25T21:35:34.987Z,1.67
2022-10-25T21:38:06.248Z,1.60
2022-10-25T21:40:37.429Z,2.05
2022-10-25T21:43:08.074Z,1.77
2022-10-25T21:45:43.945Z,2.22
2022-10-25T21:48:14.584Z,2.10
2022-10-25T21:50:45.494Z,1.60
2022-10-25T21:53:16.713Z,2.13
2022-10-25T21:55:47.618Z,1.55
2022-10-25T21:58:18.396Z,2.28
2022-10-25T22:00:51.624Z,2.10
2022-10-25T22:03:24.282Z,1.95
2022-10-25T22:05:57.599Z,2.08
2022-10-25T22:08:28.287Z,1.85
2022-10-25T22:11:03.802Z,1.77
2022-10-25T22:13:34.615Z,2.10
2022-10-25T22:16:10.663Z,2.35
2022-10-25T22:18:41.967Z,2.30
2022-10-25T22:21:15.052Z,2.45
2022-10-25T22:23:45.758Z,2.30
2022-10-25T22:26:19.031Z,2.17
2022-10-25T22:28:50.191Z,2.40
2022-10-25T22:31:24.172Z,2.33
2022-10-25T22:33:57.590Z,2.08
2022-10-25T22:36:30.950Z,2.33
2022-10-25T22:39:02.252Z,2.10
2022-10-25T22:41:33.486Z,2.58
2022-10-25T22:44:04.478Z,2.60
2022-10-25T22:46:39.309Z,2.42
2022-10-25T22:49:11.950Z,2.60
2022-10-25T22:51:42.825Z,2.20
2022-10-25T22:54:13.930Z,2.10
2022-10-25T22:56:44.690Z,2.65
2022-10-25T22:59:15.540Z,1.80
2022-10-25T23:01:48.900Z,2.28
2022-10-25T23:04:19.595Z,2.22
2022-10-25T23:06:50.562Z,3.00
2022-10-25T23:09:21.517Z,2.63
2022-10-25T23:11:52.985Z,2.10
2022-10-25T23:14:23.628Z,2.78
2022-10-25T23:16:56.918Z,2.75
2022-10-25T23:19:27.651Z,2.50
2022-10-25T23:21:58.297Z,2.95
2022-10-25T23:24:28.937Z,2.38
2022-10-25T23:26:59.685Z,2.53
2022-10-25T23:29:30.491Z,2.50
2022-10-25T23:46:16.904Z,2.53
2022-10-25T23:48:47.925Z,2.47
2022-10-25T23:51:20.745Z,2.65
2022-10-25T23:53:52.248Z,2.92
2022-10-25T23:56:22.981Z,2.30
2022-10-25T23:58:54.154Z,2.58
